sensor_id;sensor_type;location;lat;lon;timestamp;P1;durP1;ratioP1;P2;durP2;ratioP2
13580;SDS011;6861;46.170;7.222;2023-07-16T00:00:28;3.15;;;2.20;;
13580;SDS011;6861;46.170;7.222;2023-07-16T00:02:56;5.93;;;2.38;;
13580;SDS011;6861;46.170;7.222;2023-07-16T00:05:24;3.53;;;2.30;;
13580;SDS011;6861;46.170;7.222;2023-07-16T00:07:53;6.07;;;2.25;;
13580;SDS011;6861;46.170;7.222;2023-07-16T00:10:22;7.78;;;2.30;;
13580;SDS011;6861;46.170;7.222;2023-07-16T00:12:50;5.78;;;2.08;;
13580;SDS011;6861;46.170;7.222;2023-07-16T00:15:18;3.45;;;1.90;;
13580;SDS011;6861;46.170;7.222;2023-07-16T00:17:47;2.00;;;1.80;;
13580;SDS011;6861;46.170;7.222;2023-07-16T00:20:15;6.45;;;2.20;;
13580;SDS011;6861;46.170;7.222;2023-07-16T00:22:43;3.60;;;1.85;;
13580;SDS011;6861;46.170;7.222;2023-07-16T00:25:11;3.65;;;2.10;;
13580;SDS011;6861;46.170;7.222;2023-07-16T00:27:41;2.33;;;2.08;;
13580;SDS011;6861;46.170;7.222;2023-07-16T00:30:09;3.08;;;1.75;;
13580;SDS011;6861;46.170;7.222;2023-07-16T00:32:38;2.85;;;1.80;;
13580;SDS011;6861;46.170;7.222;2023-07-16T00:35:07;3.13;;;1.83;;
13580;SDS011;6861;46.170;7.222;2023-07-16T00:37:35;2.25;;;1.77;;
13580;SDS011;6861;46.170;7.222;2023-07-16T00:40:04;2.42;;;1.60;;
13580;SDS011;6861;46.170;7.222;2023-07-16T00:42:34;3.50;;;1.75;;
13580;SDS011;6861;46.170;7.222;2023-07-16T00:45:04;3.63;;;2.05;;
13580;SDS011;6861;46.170;7.222;2023-07-16T00:47:39;3.75;;;1.58;;
13580;SDS011;6861;46.170;7.222;2023-07-16T00:50:08;4.88;;;1.73;;
13580;SDS011;6861;46.170;7.222;2023-07-16T00:52:37;3.35;;;1.70;;
13580;SDS011;6861;46.170;7.222;2023-07-16T00:55:07;2.38;;;1.48;;
13580;SDS011;6861;46.170;7.222;2023-07-16T00:57:37;3.75;;;1.70;;
13580;SDS011;6861;46.170;7.222;2023-07-16T01:00:08;2.90;;;2.03;;
13580;SDS011;6861;46.170;7.222;2023-07-16T01:02:37;3.08;;;1.63;;
13580;SDS011;6861;46.170;7.222;2023-07-16T01:05:06;3.33;;;1.92;;
13580;SDS011;6861;46.170;7.222;2023-07-16T01:07:35;2.75;;;1.50;;
13580;SDS011;6861;46.170;7.222;2023-07-16T01:10:07;2.22;;;1.50;;
13580;SDS011;6861;46.170;7.222;2023-07-16T01:12:36;4.43;;;1.70;;
13580;SDS011;6861;46.170;7.222;2023-07-16T01:15:05;3.17;;;1.50;;
13580;SDS011;6861;46.170;7.222;2023-07-16T01:17:35;2.35;;;1.50;;
13580;SDS011;6861;46.170;7.222;2023-07-16T01:20:03;1.80;;;1.52;;
13580;SDS011;6861;46.170;7.222;2023-07-16T01:22:41;3.08;;;1.55;;
13580;SDS011;6861;46.170;7.222;2023-07-16T01:25:26;2.78;;;1.67;;
13580;SDS011;6861;46.170;7.222;2023-07-16T01:28:19;3.13;;;1.70;;
13580;SDS011;6861;46.170;7.222;2023-07-16T01:30:56;4.53;;;1.50;;
13580;SDS011;6861;46.170;7.222;2023-07-16T01:33:26;2.22;;;1.50;;
13580;SDS011;6861;46.170;7.222;2023-07-16T01:35:54;1.80;;;1.60;;
13580;SDS011;6861;46.170;7.222;2023-07-16T01:38:24;2.13;;;1.30;;
13580;SDS011;6861;46.170;7.222;2023-07-16T01:40:52;2.25;;;1.50;;
13580;SDS011;6861;46.170;7.222;2023-07-16T01:43:21;2.42;;;1.50;;
13580;SDS011;6861;46.170;7.222;2023-07-16T01:45:49;2.95;;;1.40;;
13580;SDS011;6861;46.170;7.222;2023-07-16T01:48:21;2.53;;;1.77;;
13580;SDS011;6861;46.170;7.222;2023-07-16T01:50:56;2.00;;;1.60;;
13580;SDS011;6861;46.170;7.222;2023-07-16T01:53:24;2.22;;;1.60;;
13580;SDS011;6861;46.170;7.222;2023-07-16T01:55:53;1.65;;;1.35;;
13580;SDS011;6861;46.170;7.222;2023-07-16T01:58:21;2.78;;;1.50;;
13580;SDS011;6861;46.170;7.222;2023-07-16T02:00:49;1.42;;;1.30;;
13580;SDS011;6861;46.170;7.222;2023-07-16T02:03:18;1.75;;;1.48;;
13580;SDS011;6861;46.170;7.222;2023-07-16T02:05:48;2.35;;;1.40;;
13580;SDS011;6861;46.170;7.222;2023-07-16T02:08:16;2.42;;;1.60;;
13580;SDS011;6861;46.170;7.222;2023-07-16T02:10:44;2.15;;;1.50;;
13580;SDS011;6861;46.170;7.222;2023-07-16T02:13:15;3.65;;;1.35;;
13580;SDS011;6861;46.170;7.222;2023-07-16T02:15:43;1.63;;;1.40;;
13580;SDS011;6861;46.170;7.222;2023-07-16T02:18:11;2.90;;;1.60;;
13580;SDS011;6861;46.170;7.222;2023-07-16T02:20:40;2.58;;;1.50;;
13580;SDS011;6861;46.170;7.222;2023-07-16T02:23:09;2.47;;;1.30;;
13580;SDS011;6861;46.170;7.222;2023-07-16T02:25:37;1.90;;;1.45;;
13580;SDS011;6861;46.170;7.222;2023-07-16T02:28:06;2.53;;;1.50;;
13580;SDS011;6861;46.170;7.222;2023-07-16T02:30:34;2.40;;;1.20;;
13580;SDS011;6861;46.170;7.222;2023-07-16T02:33:02;2.35;;;1.50;;
13580;SDS011;6861;46.170;7.222;2023-07-16T02:35:30;2.10;;;1.42;;
13580;SDS011;6861;46.170;7.222;2023-07-16T02:37:59;2.13;;;1.30;;
13580;SDS011;6861;46.170;7.222;2023-07-16T02:40:28;2.22;;;1.23;;
13580;SDS011;6861;46.170;7.222;2023-07-16T02:42:56;2.65;;;1.33;;
13580;SDS011;6861;46.170;7.222;2023-07-16T02:45:24;2.88;;;1.50;;
13580;SDS011;6861;46.170;7.222;2023-07-16T02:47:53;2.65;;;1.45;;
13580;SDS011;6861;46.170;7.222;2023-07-16T02:50:21;3.08;;;1.40;;
13580;SDS011;6861;46.170;7.222;2023-07-16T02:52:49;2.70;;;1.33;;
13580;SDS011;6861;46.170;7.222;2023-07-16T02:55:17;1.40;;;1.30;;
13580;SDS011;6861;46.170;7.222;2023-07-16T02:57:47;2.05;;;1.48;;
13580;SDS011;6861;46.170;7.222;2023-07-16T03:00:15;1.88;;;1.30;;
13580;SDS011;6861;46.170;7.222;2023-07-16T03:02:44;2.00;;;1.23;;
13580;SDS011;6861;46.170;7.222;2023-07-16T03:05:12;1.50;;;1.40;;
13580;SDS011;6861;46.170;7.222;2023-07-16T03:07:40;2.60;;;1.45;;
13580;SDS011;6861;46.170;7.222;2023-07-16T03:10:08;1.55;;;1.38;;
13580;SDS011;6861;46.170;7.222;2023-07-16T03:12:37;1.95;;;1.50;;
13580;SDS011;6861;46.170;7.222;2023-07-16T03:15:07;1.75;;;1.63;;
13580;SDS011;6861;46.170;7.222;2023-07-16T03:17:36;1.80;;;1.30;;
13580;SDS011;6861;46.170;7.222;2023-07-16T03:20:04;1.90;;;1.30;;
13580;SDS011;6861;46.170;7.222;2023-07-16T03:22:34;2.22;;;1.30;;
13580;SDS011;6861;46.170;7.222;2023-07-16T03:25:02;2.75;;;1.30;;
13580;SDS011;6861;46.170;7.222;2023-07-16T03:27:30;1.40;;;1.30;;
13580;SDS011;6861;46.170;7.222;2023-07-16T03:29:58;2.05;;;1.42;;
13580;SDS011;6861;46.170;7.222;2023-07-16T03:32:28;1.65;;;1.33;;
13580;SDS011;6861;46.170;7.222;2023-07-16T03:35:11;3.85;;;1.30;;
13580;SDS011;6861;46.170;7.222;2023-07-16T03:37:39;1.77;;;1.25;;
13580;SDS011;6861;46.170;7.222;2023-07-16T03:40:14;1.65;;;1.33;;
13580;SDS011;6861;46.170;7.222;2023-07-16T03:42:43;1.35;;;1.20;;
13580;SDS011;6861;46.170;7.222;2023-07-16T03:45:11;1.40;;;1.30;;
13580;SDS011;6861;46.170;7.222;2023-07-16T03:47:41;1.58;;;1.35;;
13580;SDS011;6861;46.170;7.222;2023-07-16T03:50:10;2.33;;;1.40;;
13580;SDS011;6861;46.170;7.222;2023-07-16T03:52:38;1.20;;;1.10;;
13580;SDS011;6861;46.170;7.222;2023-07-16T03:55:07;2.63;;;1.30;;
13580;SDS011;6861;46.170;7.222;2023-07-16T03:57:35;1.80;;;1.50;;
13580;SDS011;6861;46.170;7.222;2023-07-16T04:00:04;1.63;;;1.23;;
13580;SDS011;6861;46.170;7.222;2023-07-16T04:02:35;2.20;;;1.30;;
13580;SDS011;6861;46.170;7.222;2023-07-16T04:05:05;2.42;;;1.50;;
13580;SDS011;6861;46.170;7.222;2023-07-16T04:07:34;1.27;;;1.15;;
13580;SDS011;6861;46.170;7.222;2023-07-16T04:10:03;1.52;;;1.35;;
13580;SDS011;6861;46.170;7.222;2023-07-16T04:12:31;2.88;;;1.30;;
13580;SDS011;6861;46.170;7.222;2023-07-16T04:14:59;2.47;;;1.40;;
13580;SDS011;6861;46.170;7.222;2023-07-16T04:17:28;2.50;;;1.30;;
13580;SDS011;6861;46.170;7.222;2023-07-16T04:19:56;1.83;;;1.40;;
13580;SDS011;6861;46.170;7.222;2023-07-16T04:22:25;1.50;;;1.40;;
13580;SDS011;6861;46.170;7.222;2023-07-16T04:24:53;1.58;;;1.20;;
13580;SDS011;6861;46.170;7.222;2023-07-16T04:27:21;2.38;;;1.50;;
13580;SDS011;6861;46.170;7.222;2023-07-16T04:29:50;1.50;;;1.30;;
13580;SDS011;6861;46.170;7.222;2023-07-16T04:32:18;3.20;;;1.67;;
13580;SDS011;6861;46.170;7.222;2023-07-16T04:34:46;1.38;;;1.27;;
13580;SDS011;6861;46.170;7.222;2023-07-16T04:37:14;1.58;;;1.20;;
13580;SDS011;6861;46.170;7.222;2023-07-16T04:39:43;3.35;;;1.30;;
13580;SDS011;6861;46.170;7.222;2023-07-16T04:42:11;1.38;;;1.20;;
13580;SDS011;6861;46.170;7.222;2023-07-16T04:44:40;2.03;;;1.50;;
13580;SDS011;6861;46.170;7.222;2023-07-16T04:47:08;1.98;;;1.40;;
13580;SDS011;6861;46.170;7.222;2023-07-16T04:49:36;1.50;;;1.20;;
13580;SDS011;6861;46.170;7.222;2023-07-16T04:52:04;2.00;;;1.30;;
13580;SDS011;6861;46.170;7.222;2023-07-16T04:54:36;2.10;;;1.48;;
13580;SDS011;6861;46.170;7.222;2023-07-16T04:57:07;1.52;;;1.10;;
13580;SDS011;6861;46.170;7.222;2023-07-16T04:59:35;2.63;;;1.55;;
13580;SDS011;6861;46.170;7.222;2023-07-16T05:02:04;3.97;;;2.75;;
13580;SDS011;6861;46.170;7.222;2023-07-16T05:04:33;2.40;;;1.75;;
13580;SDS011;6861;46.170;7.222;2023-07-16T05:07:02;1.40;;;1.30;;
13580;SDS011;6861;46.170;7.222;2023-07-16T05:09:30;2.15;;;1.30;;
13580;SDS011;6861;46.170;7.222;2023-07-16T05:11:58;2.25;;;1.40;;
13580;SDS011;6861;46.170;7.222;2023-07-16T05:14:28;2.28;;;1.30;;
13580;SDS011;6861;46.170;7.222;2023-07-16T05:16:56;2.60;;;1.40;;
13580;SDS011;6861;46.170;7.222;2023-07-16T05:19:24;2.95;;;1.25;;
13580;SDS011;6861;46.170;7.222;2023-07-16T05:21:52;3.40;;;1.50;;
13580;SDS011;6861;46.170;7.222;2023-07-16T05:24:20;1.42;;;1.25;;
13580;SDS011;6861;46.170;7.222;2023-07-16T05:26:49;2.88;;;1.30;;
13580;SDS011;6861;46.170;7.222;2023-07-16T05:29:17;1.58;;;1.17;;
13580;SDS011;6861;46.170;7.222;2023-07-16T05:31:47;2.60;;;1.23;;
13580;SDS011;6861;46.170;7.222;2023-07-16T05:34:15;1.95;;;1.20;;
13580;SDS011;6861;46.170;7.222;2023-07-16T05:36:43;1.33;;;1.20;;
13580;SDS011;6861;46.170;7.222;2023-07-16T05:39:11;3.40;;;1.30;;
13580;SDS011;6861;46.170;7.222;2023-07-16T05:41:40;1.45;;;1.23;;
13580;SDS011;6861;46.170;7.222;2023-07-16T05:44:08;3.10;;;1.35;;
13580;SDS011;6861;46.170;7.222;2023-07-16T05:46:36;2.10;;;1.40;;
13580;SDS011;6861;46.170;7.222;2023-07-16T05:49:06;2.00;;;1.40;;
13580;SDS011;6861;46.170;7.222;2023-07-16T05:51:34;2.13;;;1.20;;
13580;SDS011;6861;46.170;7.222;2023-07-16T05:54:02;2.00;;;1.30;;
13580;SDS011;6861;46.170;7.222;2023-07-16T05:56:30;2.75;;;1.33;;
13580;SDS011;6861;46.170;7.222;2023-07-16T05:58:58;2.20;;;1.30;;
13580;SDS011;6861;46.170;7.222;2023-07-16T06:01:26;2.42;;;1.48;;
13580;SDS011;6861;46.170;7.222;2023-07-16T06:03:55;1.77;;;1.20;;
13580;SDS011;6861;46.170;7.222;2023-07-16T06:06:26;1.88;;;1.52;;
13580;SDS011;6861;46.170;7.222;2023-07-16T06:08:55;1.60;;;1.50;;
13580;SDS011;6861;46.170;7.222;2023-07-16T06:11:23;1.45;;;1.35;;
13580;SDS011;6861;46.170;7.222;2023-07-16T06:13:52;2.10;;;1.30;;
13580;SDS011;6861;46.170;7.222;2023-07-16T06:16:20;1.67;;;1.40;;
13580;SDS011;6861;46.170;7.222;2023-07-16T06:18:49;1.50;;;1.40;;
13580;SDS011;6861;46.170;7.222;2023-07-16T06:21:17;1.55;;;1.45;;
13580;SDS011;6861;46.170;7.222;2023-07-16T06:23:46;1.60;;;1.33;;
13580;SDS011;6861;46.170;7.222;2023-07-16T06:26:14;2.35;;;1.30;;
13580;SDS011;6861;46.170;7.222;2023-07-16T06:28:43;2.75;;;1.45;;
13580;SDS011;6861;46.170;7.222;2023-07-16T06:31:15;1.50;;;1.40;;
13580;SDS011;6861;46.170;7.222;2023-07-16T06:33:44;2.47;;;1.50;;
13580;SDS011;6861;46.170;7.222;2023-07-16T06:36:13;2.08;;;1.40;;
13580;SDS011;6861;46.170;7.222;2023-07-16T06:38:41;2.03;;;1.33;;
13580;SDS011;6861;46.170;7.222;2023-07-16T06:41:11;2.13;;;1.40;;
13580;SDS011;6861;46.170;7.222;2023-07-16T06:43:39;1.77;;;1.50;;
13580;SDS011;6861;46.170;7.222;2023-07-16T06:46:07;5.07;;;1.55;;
13580;SDS011;6861;46.170;7.222;2023-07-16T06:48:35;1.95;;;1.30;;
13580;SDS011;6861;46.170;7.222;2023-07-16T06:51:03;2.10;;;1.30;;
13580;SDS011;6861;46.170;7.222;2023-07-16T06:53:32;1.80;;;1.30;;
13580;SDS011;6861;46.170;7.222;2023-07-16T06:56:00;1.67;;;1.30;;
13580;SDS011;6861;46.170;7.222;2023-07-16T06:58:32;1.85;;;1.40;;
13580;SDS011;6861;46.170;7.222;2023-07-16T07:01:01;2.22;;;1.50;;
13580;SDS011;6861;46.170;7.222;2023-07-16T07:03:29;2.13;;;1.50;;
13580;SDS011;6861;46.170;7.222;2023-07-16T07:06:01;2.17;;;1.45;;
13580;SDS011;6861;46.170;7.222;2023-07-16T07:08:29;1.48;;;1.10;;
13580;SDS011;6861;46.170;7.222;2023-07-16T07:10:58;2.45;;;1.27;;
13580;SDS011;6861;46.170;7.222;2023-07-16T07:13:26;2.95;;;1.40;;
13580;SDS011;6861;46.170;7.222;2023-07-16T07:15:57;2.17;;;1.30;;
13580;SDS011;6861;46.170;7.222;2023-07-16T07:18:25;3.00;;;1.40;;
13580;SDS011;6861;46.170;7.222;2023-07-16T07:20:53;1.65;;;1.38;;
13580;SDS011;6861;46.170;7.222;2023-07-16T07:23:21;3.72;;;1.60;;
13580;SDS011;6861;46.170;7.222;2023-07-16T07:25:50;3.15;;;1.63;;
13580;SDS011;6861;46.170;7.222;2023-07-16T07:28:19;1.40;;;1.30;;
13580;SDS011;6861;46.170;7.222;2023-07-16T07:30:47;3.78;;;1.50;;
13580;SDS011;6861;46.170;7.222;2023-07-16T07:33:17;2.03;;;1.40;;
13580;SDS011;6861;46.170;7.222;2023-07-16T07:35:45;2.78;;;1.50;;
13580;SDS011;6861;46.170;7.222;2023-07-16T07:38:13;1.85;;;1.50;;
13580;SDS011;6861;46.170;7.222;2023-07-16T07:40:42;3.88;;;1.60;;
13580;SDS011;6861;46.170;7.222;2023-07-16T07:43:10;2.95;;;1.42;;
13580;SDS011;6861;46.170;7.222;2023-07-16T07:45:38;1.67;;;1.48;;
13580;SDS011;6861;46.170;7.222;2023-07-16T07:48:07;2.00;;;1.50;;
13580;SDS011;6861;46.170;7.222;2023-07-16T07:50:36;1.83;;;1.58;;
13580;SDS011;6861;46.170;7.222;2023-07-16T07:53:04;2.25;;;1.33;;
13580;SDS011;6861;46.170;7.222;2023-07-16T07:55:34;2.70;;;1.50;;
13580;SDS011;6861;46.170;7.222;2023-07-16T07:58:02;1.38;;;1.27;;
13580;SDS011;6861;46.170;7.222;2023-07-16T08:00:30;2.08;;;1.63;;
13580;SDS011;6861;46.170;7.222;2023-07-16T08:02:59;2.58;;;1.70;;
13580;SDS011;6861;46.170;7.222;2023-07-16T08:05:27;1.95;;;1.45;;
13580;SDS011;6861;46.170;7.222;2023-07-16T08:07:57;2.53;;;1.40;;
13580;SDS011;6861;46.170;7.222;2023-07-16T08:10:25;1.85;;;1.45;;
13580;SDS011;6861;46.170;7.222;2023-07-16T08:12:53;2.85;;;1.48;;
13580;SDS011;6861;46.170;7.222;2023-07-16T08:15:21;1.80;;;1.40;;
13580;SDS011;6861;46.170;7.222;2023-07-16T08:17:49;1.88;;;1.67;;
13580;SDS011;6861;46.170;7.222;2023-07-16T08:20:18;1.63;;;1.50;;
13580;SDS011;6861;46.170;7.222;2023-07-16T08:22:46;1.80;;;1.40;;
13580;SDS011;6861;46.170;7.222;2023-07-16T08:25:15;2.78;;;1.50;;
13580;SDS011;6861;46.170;7.222;2023-07-16T08:27:43;2.45;;;1.42;;
13580;SDS011;6861;46.170;7.222;2023-07-16T08:30:12;4.80;;;1.30;;
13580;SDS011;6861;46.170;7.222;2023-07-16T08:32:41;2.03;;;1.52;;
13580;SDS011;6861;46.170;7.222;2023-07-16T08:35:09;1.95;;;1.40;;
13580;SDS011;6861;46.170;7.222;2023-07-16T08:37:42;2.00;;;1.55;;
13580;SDS011;6861;46.170;7.222;2023-07-16T08:40:11;2.70;;;1.73;;
13580;SDS011;6861;46.170;7.222;2023-07-16T08:42:41;3.03;;;1.52;;
13580;SDS011;6861;46.170;7.222;2023-07-16T08:45:12;3.72;;;1.60;;
13580;SDS011;6861;46.170;7.222;2023-07-16T08:47:43;4.82;;;1.77;;
13580;SDS011;6861;46.170;7.222;2023-07-16T08:50:11;4.13;;;2.35;;
13580;SDS011;6861;46.170;7.222;2023-07-16T08:52:40;3.85;;;2.15;;
13580;SDS011;6861;46.170;7.222;2023-07-16T08:55:08;2.22;;;1.70;;
13580;SDS011;6861;46.170;7.222;2023-07-16T08:57:37;3.38;;;1.95;;
13580;SDS011;6861;46.170;7.222;2023-07-16T09:00:08;1.98;;;1.63;;
13580;SDS011;6861;46.170;7.222;2023-07-16T09:02:38;2.83;;;1.60;;
13580;SDS011;6861;46.170;7.222;2023-07-16T09:05:07;3.47;;;1.70;;
13580;SDS011;6861;46.170;7.222;2023-07-16T09:07:53;2.28;;;1.83;;
13580;SDS011;6861;46.170;7.222;2023-07-16T09:10:21;2.85;;;1.70;;
13580;SDS011;6861;46.170;7.222;2023-07-16T09:12:51;1.77;;;1.67;;
13580;SDS011;6861;46.170;7.222;2023-07-16T09:15:21;2.75;;;1.65;;
13580;SDS011;6861;46.170;7.222;2023-07-16T09:17:49;2.65;;;1.73;;
13580;SDS011;6861;46.170;7.222;2023-07-16T09:20:17;2.45;;;1.60;;
13580;SDS011;6861;46.170;7.222;2023-07-16T09:22:47;1.70;;;1.20;;
13580;SDS011;6861;46.170;7.222;2023-07-16T09:25:15;2.25;;;1.63;;
13580;SDS011;6861;46.170;7.222;2023-07-16T09:27:43;2.00;;;1.50;;
13580;SDS011;6861;46.170;7.222;2023-07-16T09:30:15;2.47;;;1.75;;
13580;SDS011;6861;46.170;7.222;2023-07-16T09:32:45;2.30;;;1.45;;
13580;SDS011;6861;46.170;7.222;2023-07-16T09:35:14;2.60;;;1.70;;
13580;SDS011;6861;46.170;7.222;2023-07-16T09:37:43;4.13;;;1.80;;
13580;SDS011;6861;46.170;7.222;2023-07-16T09:40:12;2.13;;;1.88;;
13580;SDS011;6861;46.170;7.222;2023-07-16T09:42:40;2.88;;;2.15;;
13580;SDS011;6861;46.170;7.222;2023-07-16T09:45:12;4.78;;;1.90;;
13580;SDS011;6861;46.170;7.222;2023-07-16T09:47:46;4.57;;;2.58;;
13580;SDS011;6861;46.170;7.222;2023-07-16T09:50:14;2.70;;;1.85;;
13580;SDS011;6861;46.170;7.222;2023-07-16T09:52:43;1.85;;;1.55;;
13580;SDS011;6861;46.170;7.222;2023-07-16T09:55:12;3.40;;;2.10;;
13580;SDS011;6861;46.170;7.222;2023-07-16T09:57:42;5.32;;;2.10;;
13580;SDS011;6861;46.170;7.222;2023-07-16T10:00:11;4.28;;;3.60;;
13580;SDS011;6861;46.170;7.222;2023-07-16T10:02:41;2.13;;;1.90;;
13580;SDS011;6861;46.170;7.222;2023-07-16T10:05:15;3.25;;;2.08;;
13580;SDS011;6861;46.170;7.222;2023-07-16T10:07:49;3.20;;;2.03;;
13580;SDS011;6861;46.170;7.222;2023-07-16T10:10:18;2.45;;;1.85;;
13580;SDS011;6861;46.170;7.222;2023-07-16T10:12:56;3.90;;;3.53;;
13580;SDS011;6861;46.170;7.222;2023-07-16T10:15:26;3.30;;;2.38;;
13580;SDS011;6861;46.170;7.222;2023-07-16T10:17:55;2.65;;;1.90;;
13580;SDS011;6861;46.170;7.222;2023-07-16T10:20:29;2.88;;;2.33;;
13580;SDS011;6861;46.170;7.222;2023-07-16T10:22:58;4.65;;;2.67;;
13580;SDS011;6861;46.170;7.222;2023-07-16T10:25:39;2.28;;;1.98;;
13580;SDS011;6861;46.170;7.222;2023-07-16T10:28:07;2.90;;;1.60;;
13580;SDS011;6861;46.170;7.222;2023-07-16T10:30:35;2.80;;;1.77;;
13580;SDS011;6861;46.170;7.222;2023-07-16T10:33:10;2.22;;;1.42;;
13580;SDS011;6861;46.170;7.222;2023-07-16T10:35:42;4.15;;;1.77;;
13580;SDS011;6861;46.170;7.222;2023-07-16T10:38:10;3.83;;;2.40;;
13580;SDS011;6861;46.170;7.222;2023-07-16T10:40:43;9.05;;;6.07;;
13580;SDS011;6861;46.170;7.222;2023-07-16T10:43:12;6.63;;;6.03;;
13580;SDS011;6861;46.170;7.222;2023-07-16T10:45:40;6.80;;;6.20;;
13580;SDS011;6861;46.170;7.222;2023-07-16T10:48:09;10.38;;;9.30;;
13580;SDS011;6861;46.170;7.222;2023-07-16T10:50:37;7.32;;;6.18;;
13580;SDS011;6861;46.170;7.222;2023-07-16T10:53:07;14.60;;;13.07;;
13580;SDS011;6861;46.170;7.222;2023-07-16T10:55:35;10.88;;;9.77;;
13580;SDS011;6861;46.170;7.222;2023-07-16T10:58:04;4.25;;;3.80;;
13580;SDS011;6861;46.170;7.222;2023-07-16T11:00:36;4.93;;;4.43;;
13580;SDS011;6861;46.170;7.222;2023-07-16T11:03:05;3.95;;;2.67;;
13580;SDS011;6861;46.170;7.222;2023-07-16T11:05:33;3.72;;;2.70;;
13580;SDS011;6861;46.170;7.222;2023-07-16T11:08:02;5.25;;;3.65;;
13580;SDS011;6861;46.170;7.222;2023-07-16T11:10:32;3.03;;;2.35;;
13580;SDS011;6861;46.170;7.222;2023-07-16T11:13:00;2.83;;;2.28;;
13580;SDS011;6861;46.170;7.222;2023-07-16T11:15:31;2.83;;;2.20;;
13580;SDS011;6861;46.170;7.222;2023-07-16T11:18:01;2.95;;;2.53;;
13580;SDS011;6861;46.170;7.222;2023-07-16T11:20:29;3.35;;;2.50;;
13580;SDS011;6861;46.170;7.222;2023-07-16T11:22:58;4.60;;;2.40;;
13580;SDS011;6861;46.170;7.222;2023-07-16T11:25:28;2.67;;;2.13;;
13580;SDS011;6861;46.170;7.222;2023-07-16T11:27:57;2.30;;;2.10;;
13580;SDS011;6861;46.170;7.222;2023-07-16T11:30:25;2.55;;;1.70;;
13580;SDS011;6861;46.170;7.222;2023-07-16T11:32:57;3.42;;;2.00;;
13580;SDS011;6861;46.170;7.222;2023-07-16T11:35:26;3.50;;;2.05;;
13580;SDS011;6861;46.170;7.222;2023-07-16T11:37:54;2.60;;;1.90;;
13580;SDS011;6861;46.170;7.222;2023-07-16T11:40:22;3.63;;;2.00;;
13580;SDS011;6861;46.170;7.222;2023-07-16T11:42:52;4.45;;;2.03;;
13580;SDS011;6861;46.170;7.222;2023-07-16T11:45:22;2.22;;;1.80;;
13580;SDS011;6861;46.170;7.222;2023-07-16T11:47:53;3.75;;;2.25;;
13580;SDS011;6861;46.170;7.222;2023-07-16T11:50:21;3.83;;;2.20;;
13580;SDS011;6861;46.170;7.222;2023-07-16T11:52:53;4.93;;;2.08;;
13580;SDS011;6861;46.170;7.222;2023-07-16T11:55:22;3.05;;;1.90;;
13580;SDS011;6861;46.170;7.222;2023-07-16T11:57:51;3.63;;;2.20;;
13580;SDS011;6861;46.170;7.222;2023-07-16T12:00:19;5.70;;;2.20;;
13580;SDS011;6861;46.170;7.222;2023-07-16T12:02:48;2.88;;;2.00;;
13580;SDS011;6861;46.170;7.222;2023-07-16T12:05:18;3.67;;;2.30;;
13580;SDS011;6861;46.170;7.222;2023-07-16T12:07:59;3.17;;;2.08;;
13580;SDS011;6861;46.170;7.222;2023-07-16T12:10:27;3.60;;;2.30;;
13580;SDS011;6861;46.170;7.222;2023-07-16T12:12:55;3.08;;;1.92;;
13580;SDS011;6861;46.170;7.222;2023-07-16T12:15:23;3.03;;;2.30;;
13580;SDS011;6861;46.170;7.222;2023-07-16T12:17:53;3.50;;;2.60;;
13580;SDS011;6861;46.170;7.222;2023-07-16T12:20:21;3.88;;;2.25;;
13580;SDS011;6861;46.170;7.222;2023-07-16T12:22:49;3.03;;;2.15;;
13580;SDS011;6861;46.170;7.222;2023-07-16T12:25:17;2.50;;;2.00;;
13580;SDS011;6861;46.170;7.222;2023-07-16T12:27:46;3.10;;;2.28;;
13580;SDS011;6861;46.170;7.222;2023-07-16T12:30:17;2.70;;;2.33;;
13580;SDS011;6861;46.170;7.222;2023-07-16T12:32:45;3.60;;;2.25;;
13580;SDS011;6861;46.170;7.222;2023-07-16T12:35:16;3.13;;;2.20;;
13580;SDS011;6861;46.170;7.222;2023-07-16T12:37:44;3.45;;;2.50;;
13580;SDS011;6861;46.170;7.222;2023-07-16T12:40:12;2.60;;;2.25;;
13580;SDS011;6861;46.170;7.222;2023-07-16T12:42:40;2.63;;;1.95;;
13580;SDS011;6861;46.170;7.222;2023-07-16T12:45:08;4.25;;;2.30;;
13580;SDS011;6861;46.170;7.222;2023-07-16T12:47:36;3.80;;;2.30;;
13580;SDS011;6861;46.170;7.222;2023-07-16T12:50:06;2.40;;;2.10;;
13580;SDS011;6861;46.170;7.222;2023-07-16T12:52:36;2.85;;;2.08;;
13580;SDS011;6861;46.170;7.222;2023-07-16T12:55:04;2.33;;;2.10;;
13580;SDS011;6861;46.170;7.222;2023-07-16T12:57:33;4.00;;;2.45;;
13580;SDS011;6861;46.170;7.222;2023-07-16T13:00:01;3.22;;;2.20;;
13580;SDS011;6861;46.170;7.222;2023-07-16T13:02:31;2.30;;;2.10;;
13580;SDS011;6861;46.170;7.222;2023-07-16T13:04:59;2.85;;;1.90;;
13580;SDS011;6861;46.170;7.222;2023-07-16T13:07:28;2.92;;;2.15;;
13580;SDS011;6861;46.170;7.222;2023-07-16T13:09:57;3.80;;;2.28;;
13580;SDS011;6861;46.170;7.222;2023-07-16T13:12:43;3.05;;;2.08;;
13580;SDS011;6861;46.170;7.222;2023-07-16T13:15:11;3.45;;;2.30;;
13580;SDS011;6861;46.170;7.222;2023-07-16T13:17:40;5.00;;;2.67;;
13580;SDS011;6861;46.170;7.222;2023-07-16T13:20:08;3.25;;;2.28;;
13580;SDS011;6861;46.170;7.222;2023-07-16T13:22:37;2.38;;;1.88;;
13580;SDS011;6861;46.170;7.222;2023-07-16T13:25:07;2.58;;;2.00;;
13580;SDS011;6861;46.170;7.222;2023-07-16T13:27:35;4.22;;;2.30;;
13580;SDS011;6861;46.170;7.222;2023-07-16T13:30:04;2.65;;;2.15;;
13580;SDS011;6861;46.170;7.222;2023-07-16T13:32:33;4.80;;;2.38;;
13580;SDS011;6861;46.170;7.222;2023-07-16T13:35:02;2.63;;;2.00;;
13580;SDS011;6861;46.170;7.222;2023-07-16T13:37:30;2.92;;;2.08;;
13580;SDS011;6861;46.170;7.222;2023-07-16T13:39:58;3.30;;;2.10;;
13580;SDS011;6861;46.170;7.222;2023-07-16T13:42:28;2.63;;;1.98;;
13580;SDS011;6861;46.170;7.222;2023-07-16T13:44:56;2.92;;;2.28;;
13580;SDS011;6861;46.170;7.222;2023-07-16T13:47:25;4.50;;;2.10;;
13580;SDS011;6861;46.170;7.222;2023-07-16T13:49:55;6.15;;;2.30;;
13580;SDS011;6861;46.170;7.222;2023-07-16T13:52:24;2.83;;;2.05;;
13580;SDS011;6861;46.170;7.222;2023-07-16T13:54:52;2.70;;;2.22;;
13580;SDS011;6861;46.170;7.222;2023-07-16T13:57:20;3.67;;;2.10;;
13580;SDS011;6861;46.170;7.222;2023-07-16T13:59:50;3.63;;;2.10;;
13580;SDS011;6861;46.170;7.222;2023-07-16T14:02:18;2.28;;;2.08;;
13580;SDS011;6861;46.170;7.222;2023-07-16T14:04:46;3.50;;;2.05;;
13580;SDS011;6861;46.170;7.222;2023-07-16T14:07:15;4.60;;;2.30;;
13580;SDS011;6861;46.170;7.222;2023-07-16T14:09:43;2.20;;;2.00;;
13580;SDS011;6861;46.170;7.222;2023-07-16T14:12:11;2.75;;;2.00;;
13580;SDS011;6861;46.170;7.222;2023-07-16T14:14:39;2.42;;;2.00;;
13580;SDS011;6861;46.170;7.222;2023-07-16T14:17:09;4.40;;;2.17;;
13580;SDS011;6861;46.170;7.222;2023-07-16T14:19:38;2.38;;;2.00;;
13580;SDS011;6861;46.170;7.222;2023-07-16T14:22:06;2.67;;;2.08;;
13580;SDS011;6861;46.170;7.222;2023-07-16T14:24:37;2.30;;;2.00;;
13580;SDS011;6861;46.170;7.222;2023-07-16T14:27:06;3.38;;;1.95;;
13580;SDS011;6861;46.170;7.222;2023-07-16T14:29:35;3.38;;;2.20;;
13580;SDS011;6861;46.170;7.222;2023-07-16T14:32:14;4.28;;;2.30;;
13580;SDS011;6861;46.170;7.222;2023-07-16T14:34:42;3.42;;;2.13;;
13580;SDS011;6861;46.170;7.222;2023-07-16T14:37:10;3.65;;;2.17;;
13580;SDS011;6861;46.170;7.222;2023-07-16T14:39:39;4.38;;;1.83;;
13580;SDS011;6861;46.170;7.222;2023-07-16T14:42:08;2.60;;;2.13;;
13580;SDS011;6861;46.170;7.222;2023-07-16T14:44:36;2.42;;;2.00;;
13580;SDS011;6861;46.170;7.222;2023-07-16T14:47:04;3.40;;;1.90;;
13580;SDS011;6861;46.170;7.222;2023-07-16T14:49:34;3.47;;;1.92;;
13580;SDS011;6861;46.170;7.222;2023-07-16T14:52:03;3.33;;;2.20;;
13580;SDS011;6861;46.170;7.222;2023-07-16T14:54:31;3.90;;;1.98;;
13580;SDS011;6861;46.170;7.222;2023-07-16T14:57:02;2.88;;;2.05;;
13580;SDS011;6861;46.170;7.222;2023-07-16T14:59:31;5.25;;;2.25;;
13580;SDS011;6861;46.170;7.222;2023-07-16T15:02:00;2.40;;;2.20;;
13580;SDS011;6861;46.170;7.222;2023-07-16T15:04:28;2.45;;;2.00;;
13580;SDS011;6861;46.170;7.222;2023-07-16T15:06:58;2.90;;;2.00;;
13580;SDS011;6861;46.170;7.222;2023-07-16T15:09:26;2.90;;;2.22;;
13580;SDS011;6861;46.170;7.222;2023-07-16T15:11:54;2.58;;;2.15;;